sensor_id;sensor_type;location;lat;lon;timestamp;P1;durP1;ratioP1;P2;durP2;ratioP2
56045;SDS011;41913;51.030;3.706;2023-03-05T00:01:40;0.45;;;0.45;;
56045;SDS011;41913;51.030;3.706;2023-03-05T00:04:08;0.68;;;0.65;;
56045;SDS011;41913;51.030;3.706;2023-03-05T00:06:38;1.02;;;0.63;;
56045;SDS011;41913;51.030;3.706;2023-03-05T00:09:04;0.70;;;0.70;;
56045;SDS011;41913;51.030;3.706;2023-03-05T00:11:30;1.02;;;0.50;;
56045;SDS011;41913;51.030;3.706;2023-03-05T00:13:57;0.47;;;0.47;;
56045;SDS011;41913;51.030;3.706;2023-03-05T00:16:24;0.43;;;0.43;;
56045;SDS011;41913;51.030;3.706;2023-03-05T00:18:51;0.60;;;0.60;;
56045;SDS011;41913;51.030;3.706;2023-03-05T00:21:25;0.68;;;0.50;;
56045;SDS011;41913;51.030;3.706;2023-03-05T00:23:53;0.50;;;0.50;;
56045;SDS011;41913;51.030;3.706;2023-03-05T00:26:21;0.60;;;0.60;;
56045;SDS011;41913;51.030;3.706;2023-03-05T00:28:49;0.40;;;0.40;;
56045;SDS011;41913;51.030;3.706;2023-03-05T00:31:19;1.52;;;0.77;;
56045;SDS011;41913;51.030;3.706;2023-03-05T00:33:49;0.50;;;0.50;;
56045;SDS011;41913;51.030;3.706;2023-03-05T00:36:19;0.52;;;0.52;;
56045;SDS011;41913;51.030;3.706;2023-03-05T00:38:45;0.68;;;0.68;;
56045;SDS011;41913;51.030;3.706;2023-03-05T00:41:11;0.60;;;0.60;;
56045;SDS011;41913;51.030;3.706;2023-03-05T00:43:36;0.57;;;0.55;;
56045;SDS011;41913;51.030;3.706;2023-03-05T00:46:02;1.83;;;0.47;;
56045;SDS011;41913;51.030;3.706;2023-03-05T00:48:28;0.60;;;0.60;;
56045;SDS011;41913;51.030;3.706;2023-03-05T00:50:54;0.80;;;0.70;;
56045;SDS011;41913;51.030;3.706;2023-03-05T00:53:19;0.70;;;0.70;;
56045;SDS011;41913;51.030;3.706;2023-03-05T00:55:45;1.40;;;0.85;;
56045;SDS011;41913;51.030;3.706;2023-03-05T00:58:11;0.60;;;0.60;;
56045;SDS011;41913;51.030;3.706;2023-03-05T01:00:37;0.50;;;0.50;;
56045;SDS011;41913;51.030;3.706;2023-03-05T01:03:02;0.80;;;0.80;;
56045;SDS011;41913;51.030;3.706;2023-03-05T01:05:28;0.45;;;0.45;;
56045;SDS011;41913;51.030;3.706;2023-03-05T01:07:55;0.73;;;0.73;;
56045;SDS011;41913;51.030;3.706;2023-03-05T01:10:22;0.60;;;0.60;;
56045;SDS011;41913;51.030;3.706;2023-03-05T01:12:51;0.82;;;0.82;;
56045;SDS011;41913;51.030;3.706;2023-03-05T01:15:18;0.73;;;0.70;;
56045;SDS011;41913;51.030;3.706;2023-03-05T01:17:43;0.77;;;0.55;;
56045;SDS011;41913;51.030;3.706;2023-03-05T01:20:11;0.70;;;0.70;;
56045;SDS011;41913;51.030;3.706;2023-03-05T01:22:38;0.68;;;0.68;;
56045;SDS011;41913;51.030;3.706;2023-03-05T01:25:04;0.60;;;0.60;;
56045;SDS011;41913;51.030;3.706;2023-03-05T01:27:30;1.02;;;0.93;;
56045;SDS011;41913;51.030;3.706;2023-03-05T01:29:56;0.50;;;0.50;;
56045;SDS011;41913;51.030;3.706;2023-03-05T01:32:22;0.47;;;0.47;;
56045;SDS011;41913;51.030;3.706;2023-03-05T01:34:47;0.63;;;0.63;;
56045;SDS011;41913;51.030;3.706;2023-03-05T01:37:13;0.70;;;0.70;;
56045;SDS011;41913;51.030;3.706;2023-03-05T01:39:38;0.43;;;0.43;;
56045;SDS011;41913;51.030;3.706;2023-03-05T01:42:04;0.82;;;0.50;;
56045;SDS011;41913;51.030;3.706;2023-03-05T01:44:31;0.50;;;0.50;;
56045;SDS011;41913;51.030;3.706;2023-03-05T01:46:58;0.75;;;0.55;;
56045;SDS011;41913;51.030;3.706;2023-03-05T01:49:32;0.82;;;0.82;;
56045;SDS011;41913;51.030;3.706;2023-03-05T01:52:04;0.60;;;0.60;;
56045;SDS011;41913;51.030;3.706;2023-03-05T01:54:33;0.50;;;0.50;;
56045;SDS011;41913;51.030;3.706;2023-03-05T01:57:04;0.55;;;0.55;;
56045;SDS011;41913;51.030;3.706;2023-03-05T01:59:33;0.40;;;0.40;;
56045;SDS011;41913;51.030;3.706;2023-03-05T02:02:01;0.40;;;0.40;;
56045;SDS011;41913;51.030;3.706;2023-03-05T02:04:40;0.60;;;0.60;;
56045;SDS011;41913;51.030;3.706;2023-03-05T02:07:09;0.60;;;0.60;;
56045;SDS011;41913;51.030;3.706;2023-03-05T02:09:37;0.65;;;0.65;;
56045;SDS011;41913;51.030;3.706;2023-03-05T02:12:04;0.57;;;0.47;;
56045;SDS011;41913;51.030;3.706;2023-03-05T02:14:31;0.43;;;0.43;;
56045;SDS011;41913;51.030;3.706;2023-03-05T02:16:57;0.63;;;0.63;;
56045;SDS011;41913;51.030;3.706;2023-03-05T02:19:23;0.50;;;0.50;;
56045;SDS011;41913;51.030;3.706;2023-03-05T02:21:49;0.90;;;0.90;;
56045;SDS011;41913;51.030;3.706;2023-03-05T02:24:30;0.50;;;0.50;;
56045;SDS011;41913;51.030;3.706;2023-03-05T02:27:00;0.50;;;0.50;;
56045;SDS011;41913;51.030;3.706;2023-03-05T02:29:27;0.50;;;0.50;;
56045;SDS011;41913;51.030;3.706;2023-03-05T02:31:54;0.52;;;0.52;;
56045;SDS011;41913;51.030;3.706;2023-03-05T02:34:21;0.60;;;0.60;;
56045;SDS011;41913;51.030;3.706;2023-03-05T02:36:47;0.52;;;0.52;;
56045;SDS011;41913;51.030;3.706;2023-03-05T02:39:14;0.50;;;0.50;;
56045;SDS011;41913;51.030;3.706;2023-03-05T02:41:41;0.40;;;0.40;;
56045;SDS011;41913;51.030;3.706;2023-03-05T02:44:07;0.47;;;0.47;;
56045;SDS011;41913;51.030;3.706;2023-03-05T02:46:33;0.45;;;0.45;;
56045;SDS011;41913;51.030;3.706;2023-03-05T02:48:59;0.63;;;0.63;;
56045;SDS011;41913;51.030;3.706;2023-03-05T02:51:25;0.60;;;0.60;;
56045;SDS011;41913;51.030;3.706;2023-03-05T02:53:50;0.45;;;0.45;;
56045;SDS011;41913;51.030;3.706;2023-03-05T02:56:16;0.47;;;0.47;;
56045;SDS011;41913;51.030;3.706;2023-03-05T02:58:42;0.80;;;0.68;;
56045;SDS011;41913;51.030;3.706;2023-03-05T03:01:08;1.13;;;0.60;;
56045;SDS011;41913;51.030;3.706;2023-03-05T03:03:34;0.38;;;0.38;;
56045;SDS011;41913;51.030;3.706;2023-03-05T03:06:01;0.40;;;0.40;;
56045;SDS011;41913;51.030;3.706;2023-03-05T03:08:27;0.50;;;0.50;;
56045;SDS011;41913;51.030;3.706;2023-03-05T03:10:53;0.45;;;0.45;;
56045;SDS011;41913;51.030;3.706;2023-03-05T03:13:21;0.70;;;0.70;;
56045;SDS011;41913;51.030;3.706;2023-03-05T03:15:47;4.05;;;0.68;;
56045;SDS011;41913;51.030;3.706;2023-03-05T03:18:13;0.50;;;0.50;;
56045;SDS011;41913;51.030;3.706;2023-03-05T03:20:39;0.55;;;0.52;;
56045;SDS011;41913;51.030;3.706;2023-03-05T03:23:05;0.75;;;0.75;;
56045;SDS011;41913;51.030;3.706;2023-03-05T03:25:31;0.32;;;0.32;;
56045;SDS011;41913;51.030;3.706;2023-03-05T03:27:56;0.50;;;0.50;;
56045;SDS011;41913;51.030;3.706;2023-03-05T03:30:22;0.30;;;0.30;;
56045;SDS011;41913;51.030;3.706;2023-03-05T03:32:50;0.50;;;0.50;;
56045;SDS011;41913;51.030;3.706;2023-03-05T03:35:16;0.50;;;0.50;;
56045;SDS011;41913;51.030;3.706;2023-03-05T03:37:42;0.75;;;0.43;;
56045;SDS011;41913;51.030;3.706;2023-03-05T03:40:08;0.73;;;0.60;;
56045;SDS011;41913;51.030;3.706;2023-03-05T03:42:35;1.23;;;0.50;;
56045;SDS011;41913;51.030;3.706;2023-03-05T03:45:01;0.40;;;0.40;;
56045;SDS011;41913;51.030;3.706;2023-03-05T03:47:28;0.75;;;0.50;;
56045;SDS011;41913;51.030;3.706;2023-03-05T03:49:54;0.70;;;0.70;;
56045;SDS011;41913;51.030;3.706;2023-03-05T03:52:20;0.40;;;0.40;;
56045;SDS011;41913;51.030;3.706;2023-03-05T03:54:47;0.40;;;0.40;;
56045;SDS011;41913;51.030;3.706;2023-03-05T03:57:14;0.30;;;0.30;;
56045;SDS011;41913;51.030;3.706;2023-03-05T03:59:40;0.30;;;0.30;;
56045;SDS011;41913;51.030;3.706;2023-03-05T04:02:05;0.40;;;0.40;;
56045;SDS011;41913;51.030;3.706;2023-03-05T04:04:31;0.30;;;0.30;;
56045;SDS011;41913;51.030;3.706;2023-03-05T04:06:57;0.30;;;0.30;;
56045;SDS011;41913;51.030;3.706;2023-03-05T04:09:22;0.50;;;0.50;;
56045;SDS011;41913;51.030;3.706;2023-03-05T04:11:49;0.50;;;0.50;;
56045;SDS011;41913;51.030;3.706;2023-03-05T04:14:15;0.50;;;0.50;;
56045;SDS011;41913;51.030;3.706;2023-03-05T04:16:41;0.30;;;0.30;;
56045;SDS011;41913;51.030;3.706;2023-03-05T04:19:06;0.25;;;0.20;;
56045;SDS011;41913;51.030;3.706;2023-03-05T04:21:32;0.50;;;0.50;;
56045;SDS011;41913;51.030;3.706;2023-03-05T04:23:58;0.32;;;0.32;;
56045;SDS011;41913;51.030;3.706;2023-03-05T04:26:23;0.50;;;0.50;;
56045;SDS011;41913;51.030;3.706;2023-03-05T04:28:49;0.40;;;0.40;;
56045;SDS011;41913;51.030;3.706;2023-03-05T04:31:15;0.30;;;0.30;;
56045;SDS011;41913;51.030;3.706;2023-03-05T04:33:41;0.38;;;0.38;;
56045;SDS011;41913;51.030;3.706;2023-03-05T04:36:07;0.40;;;0.40;;
56045;SDS011;41913;51.030;3.706;2023-03-05T04:38:33;0.30;;;0.30;;
56045;SDS011;41913;51.030;3.706;2023-03-05T04:40:59;0.43;;;0.43;;
56045;SDS011;41913;51.030;3.706;2023-03-05T04:43:26;0.40;;;0.40;;
56045;SDS011;41913;51.030;3.706;2023-03-05T04:45:53;0.30;;;0.30;;
56045;SDS011;41913;51.030;3.706;2023-03-05T04:48:19;0.30;;;0.30;;
56045;SDS011;41913;51.030;3.706;2023-03-05T04:50:45;0.20;;;0.20;;
56045;SDS011;41913;51.030;3.706;2023-03-05T04:53:11;0.50;;;0.50;;
56045;SDS011;41913;51.030;3.706;2023-03-05T04:55:37;0.43;;;0.43;;
56045;SDS011;41913;51.030;3.706;2023-03-05T04:58:03;0.20;;;0.20;;
56045;SDS011;41913;51.030;3.706;2023-03-05T05:00:30;1.52;;;0.47;;
56045;SDS011;41913;51.030;3.706;2023-03-05T05:02:55;0.43;;;0.43;;
56045;SDS011;41913;51.030;3.706;2023-03-05T05:05:22;0.40;;;0.40;;
56045;SDS011;41913;51.030;3.706;2023-03-05T05:07:52;0.40;;;0.40;;
56045;SDS011;41913;51.030;3.706;2023-03-05T05:10:19;0.30;;;0.30;;
56045;SDS011;41913;51.030;3.706;2023-03-05T05:12:45;0.40;;;0.40;;
56045;SDS011;41913;51.030;3.706;2023-03-05T05:15:11;0.43;;;0.40;;
56045;SDS011;41913;51.030;3.706;2023-03-05T05:17:37;0.25;;;0.25;;
56045;SDS011;41913;51.030;3.706;2023-03-05T05:20:03;0.40;;;0.32;;
56045;SDS011;41913;51.030;3.706;2023-03-05T05:22:33;0.40;;;0.40;;
56045;SDS011;41913;51.030;3.706;2023-03-05T05:24:59;0.40;;;0.40;;
56045;SDS011;41913;51.030;3.706;2023-03-05T05:27:25;0.30;;;0.30;;
56045;SDS011;41913;51.030;3.706;2023-03-05T05:29:51;0.30;;;0.30;;
56045;SDS011;41913;51.030;3.706;2023-03-05T05:32:17;0.40;;;0.40;;
56045;SDS011;41913;51.030;3.706;2023-03-05T05:34:44;0.30;;;0.30;;
56045;SDS011;41913;51.030;3.706;2023-03-05T05:37:10;0.57;;;0.40;;
56045;SDS011;41913;51.030;3.706;2023-03-05T05:39:36;0.40;;;0.40;;
56045;SDS011;41913;51.030;3.706;2023-03-05T05:42:02;0.35;;;0.35;;
56045;SDS011;41913;51.030;3.706;2023-03-05T05:44:28;0.30;;;0.30;;
56045;SDS011;41913;51.030;3.706;2023-03-05T05:46:53;0.30;;;0.30;;
56045;SDS011;41913;51.030;3.706;2023-03-05T05:49:19;0.35;;;0.35;;
56045;SDS011;41913;51.030;3.706;2023-03-05T05:51:45;0.40;;;0.40;;
56045;SDS011;41913;51.030;3.706;2023-03-05T05:54:14;0.82;;;0.40;;
56045;SDS011;41913;51.030;3.706;2023-03-05T05:56:40;0.30;;;0.30;;
56045;SDS011;41913;51.030;3.706;2023-03-05T05:59:06;0.30;;;0.30;;
56045;SDS011;41913;51.030;3.706;2023-03-05T06:01:33;0.40;;;0.40;;
56045;SDS011;41913;51.030;3.706;2023-03-05T06:03:59;0.20;;;0.20;;
56045;SDS011;41913;51.030;3.706;2023-03-05T06:06:26;0.20;;;0.20;;
56045;SDS011;41913;51.030;3.706;2023-03-05T06:08:52;0.30;;;0.30;;
56045;SDS011;41913;51.030;3.706;2023-03-05T06:11:19;0.63;;;0.50;;
56045;SDS011;41913;51.030;3.706;2023-03-05T06:13:45;0.20;;;0.20;;
56045;SDS011;41913;51.030;3.706;2023-03-05T06:16:14;0.20;;;0.20;;
56045;SDS011;41913;51.030;3.706;2023-03-05T06:18:42;0.20;;;0.20;;
56045;SDS011;41913;51.030;3.706;2023-03-05T06:21:09;0.30;;;0.30;;
56045;SDS011;41913;51.030;3.706;2023-03-05T06:23:37;0.30;;;0.30;;
56045;SDS011;41913;51.030;3.706;2023-03-05T06:26:03;0.35;;;0.35;;
56045;SDS011;41913;51.030;3.706;2023-03-05T06:28:31;1.00;;;0.60;;
56045;SDS011;41913;51.030;3.706;2023-03-05T06:31:01;0.20;;;0.20;;
56045;SDS011;41913;51.030;3.706;2023-03-05T06:33:49;0.40;;;0.40;;
56045;SDS011;41913;51.030;3.706;2023-03-05T06:36:16;0.10;;;0.10;;
56045;SDS011;41913;51.030;3.706;2023-03-05T06:38:43;0.40;;;0.20;;
56045;SDS011;41913;51.030;3.706;2023-03-05T06:41:10;0.30;;;0.30;;
56045;SDS011;41913;51.030;3.706;2023-03-05T06:43:39;0.20;;;0.20;;
56045;SDS011;41913;51.030;3.706;2023-03-05T06:46:07;0.30;;;0.30;;
56045;SDS011;41913;51.030;3.706;2023-03-05T06:48:44;0.20;;;0.20;;
56045;SDS011;41913;51.030;3.706;2023-03-05T06:51:17;0.55;;;0.50;;
56045;SDS011;41913;51.030;3.706;2023-03-05T06:53:45;0.47;;;0.20;;
56045;SDS011;41913;51.030;3.706;2023-03-05T06:56:12;0.15;;;0.15;;
56045;SDS011;41913;51.030;3.706;2023-03-05T06:58:40;0.28;;;0.28;;
56045;SDS011;41913;51.030;3.706;2023-03-05T07:01:06;0.20;;;0.20;;
56045;SDS011;41913;51.030;3.706;2023-03-05T07:03:33;0.20;;;0.20;;
56045;SDS011;41913;51.030;3.706;2023-03-05T07:06:03;0.20;;;0.20;;
56045;SDS011;41913;51.030;3.706;2023-03-05T07:08:31;0.22;;;0.22;;
56045;SDS011;41913;51.030;3.706;2023-03-05T07:10:57;0.28;;;0.28;;
56045;SDS011;41913;51.030;3.706;2023-03-05T07:13:23;0.30;;;0.30;;
56045;SDS011;41913;51.030;3.706;2023-03-05T07:15:49;0.20;;;0.20;;
56045;SDS011;41913;51.030;3.706;2023-03-05T07:18:15;0.30;;;0.30;;
56045;SDS011;41913;51.030;3.706;2023-03-05T07:20:40;0.20;;;0.20;;
56045;SDS011;41913;51.030;3.706;2023-03-05T07:23:06;0.77;;;0.30;;
56045;SDS011;41913;51.030;3.706;2023-03-05T07:25:34;0.20;;;0.20;;
56045;SDS011;41913;51.030;3.706;2023-03-05T07:28:00;0.10;;;0.10;;
56045;SDS011;41913;51.030;3.706;2023-03-05T07:30:28;0.17;;;0.17;;
56045;SDS011;41913;51.030;3.706;2023-03-05T07:32:54;0.15;;;0.15;;
56045;SDS011;41913;51.030;3.706;2023-03-05T07:35:19;0.32;;;0.28;;
56045;SDS011;41913;51.030;3.706;2023-03-05T07:37:45;0.52;;;0.20;;
56045;SDS011;41913;51.030;3.706;2023-03-05T07:40:11;0.10;;;0.10;;
56045;SDS011;41913;51.030;3.706;2023-03-05T07:42:37;0.22;;;0.22;;
56045;SDS011;41913;51.030;3.706;2023-03-05T07:45:02;3.85;;;0.73;;
56045;SDS011;41913;51.030;3.706;2023-03-05T07:47:28;19.80;;;1.27;;
56045;SDS011;41913;51.030;3.706;2023-03-05T07:49:54;31.20;;;3.08;;
56045;SDS011;41913;51.030;3.706;2023-03-05T07:52:20;24.10;;;1.42;;
56045;SDS011;41913;51.030;3.706;2023-03-05T07:54:46;3.15;;;0.88;;
56045;SDS011;41913;51.030;3.706;2023-03-05T07:57:12;3.42;;;0.55;;
56045;SDS011;41913;51.030;3.706;2023-03-05T07:59:38;0.68;;;0.38;;
56045;SDS011;41913;51.030;3.706;2023-03-05T08:02:04;2.28;;;0.43;;
56045;SDS011;41913;51.030;3.706;2023-03-05T08:04:30;3.00;;;1.20;;
56045;SDS011;41913;51.030;3.706;2023-03-05T08:06:56;6.20;;;1.60;;
56045;SDS011;41913;51.030;3.706;2023-03-05T08:09:22;4.43;;;1.10;;
56045;SDS011;41913;51.030;3.706;2023-03-05T08:11:48;10.30;;;2.33;;
56045;SDS011;41913;51.030;3.706;2023-03-05T08:14:14;12.30;;;2.13;;
56045;SDS011;41913;51.030;3.706;2023-03-05T08:16:40;8.93;;;1.42;;
56045;SDS011;41913;51.030;3.706;2023-03-05T08:19:05;2.25;;;1.02;;
56045;SDS011;41913;51.030;3.706;2023-03-05T08:21:34;3.33;;;1.08;;
56045;SDS011;41913;51.030;3.706;2023-03-05T08:24:02;1.02;;;0.80;;
56045;SDS011;41913;51.030;3.706;2023-03-05T08:26:33;6.22;;;1.10;;
56045;SDS011;41913;51.030;3.706;2023-03-05T08:29:00;2.45;;;0.77;;
56045;SDS011;41913;51.030;3.706;2023-03-05T08:31:27;5.30;;;1.30;;
56045;SDS011;41913;51.030;3.706;2023-03-05T08:33:54;0.85;;;0.50;;
56045;SDS011;41913;51.030;3.706;2023-03-05T08:36:20;0.80;;;0.73;;
56045;SDS011;41913;51.030;3.706;2023-03-05T08:38:46;4.03;;;1.20;;
56045;SDS011;41913;51.030;3.706;2023-03-05T08:41:14;2.78;;;0.70;;
56045;SDS011;41913;51.030;3.706;2023-03-05T08:43:41;2.50;;;0.80;;
56045;SDS011;41913;51.030;3.706;2023-03-05T08:46:06;0.90;;;0.85;;
56045;SDS011;41913;51.030;3.706;2023-03-05T08:48:33;1.83;;;0.85;;
56045;SDS011;41913;51.030;3.706;2023-03-05T08:51:10;0.80;;;0.68;;
56045;SDS011;41913;51.030;3.706;2023-03-05T08:53:37;1.05;;;0.60;;
56045;SDS011;41913;51.030;3.706;2023-03-05T08:56:04;5.60;;;1.08;;
56045;SDS011;41913;51.030;3.706;2023-03-05T08:58:30;3.58;;;1.13;;
56045;SDS011;41913;51.030;3.706;2023-03-05T09:00:56;1.30;;;0.60;;
56045;SDS011;41913;51.030;3.706;2023-03-05T09:03:22;3.15;;;0.75;;
56045;SDS011;41913;51.030;3.706;2023-03-05T09:05:48;6.40;;;1.05;;
56045;SDS011;41913;51.030;3.706;2023-03-05T09:08:15;1.75;;;0.73;;
56045;SDS011;41913;51.030;3.706;2023-03-05T09:10:41;4.68;;;1.17;;
56045;SDS011;41913;51.030;3.706;2023-03-05T09:13:08;3.38;;;1.17;;
56045;SDS011;41913;51.030;3.706;2023-03-05T09:15:33;3.13;;;1.40;;
56045;SDS011;41913;51.030;3.706;2023-03-05T09:17:59;1.77;;;0.90;;
56045;SDS011;41913;51.030;3.706;2023-03-05T09:20:25;2.17;;;0.82;;
56045;SDS011;41913;51.030;3.706;2023-03-05T09:22:51;3.70;;;0.70;;
56045;SDS011;41913;51.030;3.706;2023-03-05T09:25:17;4.47;;;1.30;;
56045;SDS011;41913;51.030;3.706;2023-03-05T09:27:43;10.15;;;1.60;;
56045;SDS011;41913;51.030;3.706;2023-03-05T09:30:09;5.38;;;1.13;;
56045;SDS011;41913;51.030;3.706;2023-03-05T09:32:38;5.93;;;0.70;;
56045;SDS011;41913;51.030;3.706;2023-03-05T09:35:04;7.35;;;1.45;;
56045;SDS011;41913;51.030;3.706;2023-03-05T09:37:30;3.92;;;0.90;;
56045;SDS011;41913;51.030;3.706;2023-03-05T09:39:56;6.85;;;1.48;;
56045;SDS011;41913;51.030;3.706;2023-03-05T09:45:12;6.63;;;0.60;;
56045;SDS011;41913;51.030;3.706;2023-03-05T09:52:53;4.97;;;1.05;;
56045;SDS011;41913;51.030;3.706;2023-03-05T09:58:32;3.70;;;1.00;;
56045;SDS011;41913;51.030;3.706;2023-03-05T10:01:22;7.47;;;0.93;;
56045;SDS011;41913;51.030;3.706;2023-03-05T10:04:09;22.40;;;3.10;;
56045;SDS011;41913;51.030;3.706;2023-03-05T10:09:38;8.68;;;1.15;;
56045;SDS011;41913;51.030;3.706;2023-03-05T10:15:25;1.42;;;1.00;;
56045;SDS011;41913;51.030;3.706;2023-03-05T10:20:31;1.52;;;0.75;;
56045;SDS011;41913;51.030;3.706;2023-03-05T10:28:34;3.78;;;1.33;;
56045;SDS011;41913;51.030;3.706;2023-03-05T10:42:41;3.92;;;1.30;;
56045;SDS011;41913;51.030;3.706;2023-03-05T10:45:20;2.40;;;0.98;;
56045;SDS011;41913;51.030;3.706;2023-03-05T10:47:58;1.73;;;0.95;;
56045;SDS011;41913;51.030;3.706;2023-03-05T10:50:41;2.25;;;1.08;;
56045;SDS011;41913;51.030;3.706;2023-03-05T10:56:14;0.90;;;0.90;;
56045;SDS011;41913;51.030;3.706;2023-03-05T10:58:42;0.93;;;0.88;;
56045;SDS011;41913;51.030;3.706;2023-03-05T11:01:29;1.55;;;0.80;;
56045;SDS011;41913;51.030;3.706;2023-03-05T11:03:56;0.60;;;0.60;;
56045;SDS011;41913;51.030;3.706;2023-03-05T11:06:31;0.93;;;0.50;;
56045;SDS011;41913;51.030;3.706;2023-03-05T11:12:31;0.70;;;0.70;;
56045;SDS011;41913;51.030;3.706;2023-03-05T11:14:37;0.43;;;0.43;;
56045;SDS011;41913;51.030;3.706;2023-03-05T11:23:02;2.00;;;0.50;;
56045;SDS011;41913;51.030;3.706;2023-03-05T11:25:28;0.90;;;0.40;;
56045;SDS011;41913;51.030;3.706;2023-03-05T11:27:56;0.68;;;0.50;;
56045;SDS011;41913;51.030;3.706;2023-03-05T11:30:24;0.63;;;0.63;;
56045;SDS011;41913;51.030;3.706;2023-03-05T11:33:09;0.60;;;0.40;;
56045;SDS011;41913;51.030;3.706;2023-03-05T11:35:38;0.52;;;0.40;;
56045;SDS011;41913;51.030;3.706;2023-03-05T11:38:09;0.57;;;0.57;;
56045;SDS011;41913;51.030;3.706;2023-03-05T11:40:43;0.57;;;0.50;;
56045;SDS011;41913;51.030;3.706;2023-03-05T11:43:14;0.50;;;0.50;;
56045;SDS011;41913;51.030;3.706;2023-03-05T11:45:44;0.75;;;0.63;;
56045;SDS011;41913;51.030;3.706;2023-03-05T11:48:15;0.47;;;0.47;;
56045;SDS011;41913;51.030;3.706;2023-03-05T11:50:45;0.40;;;0.40;;
56045;SDS011;41913;51.030;3.706;2023-03-05T11:53:26;2.00;;;0.90;;
56045;SDS011;41913;51.030;3.706;2023-03-05T11:55:58;0.85;;;0.50;;
56045;SDS011;41913;51.030;3.706;2023-03-05T12:01:16;0.63;;;0.43;;
56045;SDS011;41913;51.030;3.706;2023-03-05T12:03:47;0.30;;;0.30;;
56045;SDS011;41913;51.030;3.706;2023-03-05T12:09:00;1.75;;;0.60;;
56045;SDS011;41913;51.030;3.706;2023-03-05T12:11:31;0.30;;;0.30;;
56045;SDS011;41913;51.030;3.706;2023-03-05T12:16:51;0.75;;;0.60;;
56045;SDS011;41913;51.030;3.706;2023-03-05T12:19:50;0.30;;;0.30;;
56045;SDS011;41913;51.030;3.706;2023-03-05T12:22:26;0.30;;;0.30;;
56045;SDS011;41913;51.030;3.706;2023-03-05T12:27:56;0.40;;;0.40;;
56045;SDS011;41913;51.030;3.706;2023-03-05T12:33:00;0.30;;;0.30;;
56045;SDS011;41913;51.030;3.706;2023-03-05T12:35:36;0.30;;;0.30;;
56045;SDS011;41913;51.030;3.706;2023-03-05T12:38:04;1.48;;;0.22;;
56045;SDS011;41913;51.030;3.706;2023-03-05T12:40:33;0.20;;;0.20;;
56045;SDS011;41913;51.030;3.706;2023-03-05T12:43:00;0.40;;;0.40;;
56045;SDS011;41913;51.030;3.706;2023-03-05T12:55:26;0.55;;;0.30;;
56045;SDS011;41913;51.030;3.706;2023-03-05T12:57:55;0.25;;;0.25;;
56045;SDS011;41913;51.030;3.706;2023-03-05T13:00:26;0.30;;;0.30;;
56045;SDS011;41913;51.030;3.706;2023-03-05T13:03:03;0.20;;;0.20;;
56045;SDS011;41913;51.030;3.706;2023-03-05T13:05:35;0.20;;;0.20;;
56045;SDS011;41913;51.030;3.706;2023-03-05T13:08:17;0.28;;;0.28;;
56045;SDS011;41913;51.030;3.706;2023-03-05T13:10:51;0.25;;;0.25;;
56045;SDS011;41913;51.030;3.706;2023-03-05T13:13:20;0.28;;;0.28;;
56045;SDS011;41913;51.030;3.706;2023-03-05T13:15:47;0.40;;;0.40;;
56045;SDS011;41913;51.030;3.706;2023-03-05T13:18:19;0.57;;;0.40;;
56045;SDS011;41913;51.030;3.706;2023-03-05T13:20:47;0.20;;;0.20;;
56045;SDS011;41913;51.030;3.706;2023-03-05T13:23:24;0.20;;;0.20;;
56045;SDS011;41913;51.030;3.706;2023-03-05T13:25:55;0.30;;;0.30;;
56045;SDS011;41913;51.030;3.706;2023-03-05T13:28:23;0.40;;;0.40;;
56045;SDS011;41913;51.030;3.706;2023-03-05T13:30:50;0.40;;;0.40;;
56045;SDS011;41913;51.030;3.706;2023-03-05T13:33:24;0.40;;;0.40;;
56045;SDS011;41913;51.030;3.706;2023-03-05T13:35:55;0.50;;;0.50;;
56045;SDS011;41913;51.030;3.706;2023-03-05T13:38:21;0.57;;;0.55;;
56045;SDS011;41913;51.030;3.706;2023-03-05T13:41:00;0.40;;;0.40;;
56045;SDS011;41913;51.030;3.706;2023-03-05T13:43:28;0.25;;;0.25;;
56045;SDS011;41913;51.030;3.706;2023-03-05T13:45:54;0.40;;;0.40;;
56045;SDS011;41913;51.030;3.706;2023-03-05T13:48:21;0.50;;;0.43;;
56045;SDS011;41913;51.030;3.706;2023-03-05T13:50:52;1.00;;;0.52;;
56045;SDS011;41913;51.030;3.706;2023-03-05T13:53:28;0.40;;;0.40;;
56045;SDS011;41913;51.030;3.706;2023-03-05T13:55:56;0.60;;;0.52;;
56045;SDS011;41913;51.030;3.706;2023-03-05T14:06:40;0.55;;;0.55;;
56045;SDS011;41913;51.030;3.706;2023-03-05T14:11:55;0.50;;;0.50;;
56045;SDS011;41913;51.030;3.706;2023-03-05T14:14:29;0.40;;;0.40;;
56045;SDS011;41913;51.030;3.706;2023-03-05T14:19:52;0.50;;;0.50;;
56045;SDS011;41913;51.030;3.706;2023-03-05T14:22:46;0.50;;;0.50;;
56045;SDS011;41913;51.030;3.706;2023-03-05T14:25:32;1.33;;;0.45;;
56045;SDS011;41913;51.030;3.706;2023-03-05T14:30:48;0.25;;;0.25;;
56045;SDS011;41913;51.030;3.706;2023-03-05T14:33:21;0.50;;;0.50;;
56045;SDS011;41913;51.030;3.706;2023-03-05T14:35:54;0.30;;;0.30;;
56045;SDS011;41913;51.030;3.706;2023-03-05T14:38:23;0.30;;;0.30;;
56045;SDS011;41913;51.030;3.706;2023-03-05T14:40:54;0.30;;;0.30;;
56045;SDS011;41913;51.030;3.706;2023-03-05T14:43:19;0.30;;;0.30;;
56045;SDS011;41913;51.030;3.706;2023-03-05T14:45:46;0.50;;;0.50;;
56045;SDS011;41913;51.030;3.706;2023-03-05T14:48:13;0.30;;;0.30;;
56045;SDS011;41913;51.030;3.706;2023-03-05T14:50:48;0.50;;;0.50;;
56045;SDS011;41913;51.030;3.706;2023-03-05T14:53:20;0.28;;;0.25;;
56045;SDS011;41913;51.030;3.706;2023-03-05T14:55:48;0.47;;;0.47;;
56045;SDS011;41913;51.030;3.706;2023-03-05T14:58:24;0.40;;;0.40;;
56045;SDS011;41913;51.030;3.706;2023-03-05T15:00:56;0.47;;;0.47;;
56045;SDS011;41913;51.030;3.706;2023-03-05T15:03:23;0.30;;;0.30;;
56045;SDS011;41913;51.030;3.706;2023-03-05T15:05:50;0.30;;;0.30;;
56045;SDS011;41913;51.030;3.706;2023-03-05T15:13:16;0.10;;;0.10;;
56045;SDS011;41913;51.030;3.706;2023-03-05T15:15:43;0.20;;;0.20;;
56045;SDS011;41913;51.030;3.706;2023-03-05T15:18:14;0.28;;;0.28;;
56045;SDS011;41913;51.030;3.706;2023-03-05T15:20:42;0.40;;;0.40;;
56045;SDS011;41913;51.030;3.706;2023-03-05T15:23:08;0.45;;;0.45;;
56045;SDS011;41913;51.030;3.706;2023-03-05T15:25:34;0.30;;;0.30;;
56045;SDS011;41913;51.030;3.706;2023-03-05T15:28:00;0.25;;;0.25;;
56045;SDS011;41913;51.030;3.706;2023-03-05T15:30:27;0.50;;;0.50;;
56045;SDS011;41913;51.030;3.706;2023-03-05T15:32:55;0.50;;;0.50;;
56045;SDS011;41913;51.030;3.706;2023-03-05T15:35:22;0.30;;;0.30;;
56045;SDS011;41913;51.030;3.706;2023-03-05T15:37:48;0.30;;;0.30;;
56045;SDS011;41913;51.030;3.706;2023-03-05T15:40:15;0.40;;;0.40;;
56045;SDS011;41913;51.030;3.706;2023-03-05T15:42:41;0.20;;;0.20;;
56045;SDS011;41913;51.030;3.706;2023-03-05T15:45:07;0.40;;;0.40;;
56045;SDS011;41913;51.030;3.706;2023-03-05T15:47:33;0.30;;;0.30;;
56045;SDS011;41913;51.030;3.706;2023-03-05T15:49:59;0.40;;;0.40;;
56045;SDS011;41913;51.030;3.706;2023-03-05T15:52:25;0.57;;;0.57;;
56045;SDS011;41913;51.030;3.706;2023-03-05T15:54:51;0.50;;;0.50;;
56045;SDS011;41913;51.030;3.706;2023-03-05T15:57:16;0.30;;;0.30;;
56045;SDS011;41913;51.030;3.706;2023-03-05T15:59:46;0.50;;;0.50;;
56045;SDS011;41913;51.030;3.706;2023-03-05T16:02:12;0.30;;;0.30;;
56045;SDS011;41913;51.030;3.706;2023-03-05T16:04:37;0.30;;;0.30;;
56045;SDS011;41913;51.030;3.706;2023-03-05T16:07:03;0.30;;;0.30;;
56045;SDS011;41913;51.030;3.706;2023-03-05T16:09:30;0.22;;;0.22;;
56045;SDS011;41913;51.030;3.706;2023-03-05T16:12:01;0.43;;;0.43;;
56045;SDS011;41913;51.030;3.706;2023-03-05T16:14:28;0.50;;;0.50;;
56045;SDS011;41913;51.030;3.706;2023-03-05T16:16:56;0.73;;;0.73;;
56045;SDS011;41913;51.030;3.706;2023-03-05T16:19:25;0.98;;;0.80;;
56045;SDS011;41913;51.030;3.706;2023-03-05T16:21:51;0.70;;;0.70;;
56045;SDS011;41913;51.030;3.706;2023-03-05T16:24:17;0.63;;;0.63;;
56045;SDS011;41913;51.030;3.706;2023-03-05T16:26:43;0.73;;;0.73;;
56045;SDS011;41913;51.030;3.706;2023-03-05T16:29:09;0.68;;;0.68;;